PWSweather.com
Personal Weather Stations
Station Observations
WISCHPK61
Green Bay Schmitt Park, Green Bay, WI 54311

Green Bay Schmitt ParkGreen Bay, WI 54311

Lat: 44.514277, Lon: -87.935067

Elevation: 735

Station Type: Acu Rite Pro Weather Center model 02032C

http://greenbayweathercam.com

High Low Average
Temperature 39.0°F3.9°C 17.2°F-8.2°C 26.5°F-3.1°C
Dew Point 24.0°F-4.4°C 15.5°F-9.2°C 20.7°F-6.3°C
Winds 4.6 mph 7.4 kmh Calm Calm 1.0 mph SW1.6 kmh SW
Wind Gusts 6.9 mph11.1 kmh -- 2.0 mph3.2 kmh
Humidity 96% 53% 80%
Pressure 29.50 in999.0 mb 29.42 in996.3 mb -
Precipitation 0.00 in0.0 mm - -
Hour Temp Dew Point Humidity Winds Wind Gusts Pressure Precip Precip Rate Daily Precip Total
12:00 AM 26.2°F-3.2°C 22.9°F-5.1°C 87% Calm Calm -- 29.43 in996.6 mb - 0.00 in0.0 mm 0.00 in0.0 mm
12:15 AM 26.1°F-3.3°C 22.5°F-5.3°C 86% 2.3 mph NW3.7 kmh NW 2.3 mph3.7 kmh 29.43 in996.6 mb - 0.00 in0.0 mm 0.00 in0.0 mm
12:30 AM 26.4°F-3.1°C 22.5°F-5.3°C 85% 2.3 mph WNW3.7 kmh WNW 2.3 mph3.7 kmh 29.43 in996.6 mb - 0.00 in0.0 mm 0.00 in0.0 mm
12:45 AM 26.4°F-3.1°C 22.5°F-5.3°C 85% 2.3 mph WNW3.7 kmh WNW 2.3 mph3.7 kmh 29.43 in996.6 mb - 0.00 in0.0 mm 0.00 in0.0 mm
01:00 AM 26.4°F-3.1°C 23.1°F-4.9°C 87% Calm Calm -- 29.43 in996.6 mb - 0.00 in0.0 mm 0.00 in0.0 mm
01:15 AM 26.2°F-3.2°C 22.9°F-5.1°C 87% Calm Calm -- 29.42 in996.3 mb - 0.00 in0.0 mm 0.00 in0.0 mm
01:30 AM 25.9°F-3.4°C 22.6°F-5.2°C 87% Calm Calm -- 29.43 in996.6 mb - 0.00 in0.0 mm 0.00 in0.0 mm
01:45 AM 25.5°F-3.6°C 22.4°F-5.3°C 88% Calm Calm -- 29.43 in996.6 mb - 0.00 in0.0 mm 0.00 in0.0 mm
02:00 AM 25.5°F-3.6°C 22.4°F-5.3°C 88% Calm Calm -- 29.43 in996.6 mb - 0.00 in0.0 mm 0.00 in0.0 mm
02:15 AM 25.9°F-3.4°C 22.6°F-5.2°C 87% Calm Calm 1.2 mph1.9 kmh 29.43 in996.6 mb - 0.00 in0.0 mm 0.00 in0.0 mm
02:30 AM 25.9°F-3.4°C 22.8°F-5.1°C 88% 1.2 mph NNW1.9 kmh NNW 2.3 mph3.7 kmh 29.43 in996.6 mb - 0.00 in0.0 mm 0.00 in0.0 mm
02:45 AM 26.1°F-3.3°C 23.0°F-5.0°C 88% 2.3 mph WSW3.7 kmh WSW 2.3 mph3.7 kmh 29.43 in996.6 mb - 0.00 in0.0 mm 0.00 in0.0 mm
03:00 AM 26.1°F-3.3°C 23.3°F-4.8°C 89% 1.2 mph SSE1.9 kmh SSE 2.3 mph3.7 kmh 29.43 in996.6 mb - 0.00 in0.0 mm 0.00 in0.0 mm
03:15 AM 26.1°F-3.3°C 23.6°F-4.7°C 90% Calm Calm -- 29.43 in996.6 mb - 0.00 in0.0 mm 0.00 in0.0 mm
03:30 AM 25.9°F-3.4°C 23.4°F-4.8°C 90% Calm Calm -- 29.43 in996.6 mb - 0.00 in0.0 mm 0.00 in0.0 mm
03:45 AM 25.9°F-3.4°C 23.6°F-4.7°C 91% Calm Calm -- 29.42 in996.3 mb - 0.00 in0.0 mm 0.00 in0.0 mm
04:00 AM 25.9°F-3.4°C 23.6°F-4.7°C 91% Calm Calm -- 29.43 in996.6 mb - 0.00 in0.0 mm 0.00 in0.0 mm
04:15 AM 25.9°F-3.4°C 23.4°F-4.8°C 90% 1.2 mph S1.9 kmh S 3.5 mph5.6 kmh 29.43 in996.6 mb - 0.00 in0.0 mm 0.00 in0.0 mm
04:30 AM 25.9°F-3.4°C 23.6°F-4.7°C 91% Calm Calm -- 29.43 in996.6 mb - 0.00 in0.0 mm 0.00 in0.0 mm
04:45 AM 25.7°F-3.5°C 23.4°F-4.8°C 91% Calm Calm -- 29.43 in996.6 mb - 0.00 in0.0 mm 0.00 in0.0 mm
05:00 AM 25.3°F-3.7°C 23.3°F-4.8°C 92% 2.3 mph WNW3.7 kmh WNW 3.5 mph5.6 kmh 29.43 in996.6 mb - 0.00 in0.0 mm 0.00 in0.0 mm
05:15 AM 25.0°F-3.9°C 23.3°F-4.8°C 93% Calm Calm 1.2 mph1.9 kmh 29.44 in997.0 mb - 0.00 in0.0 mm 0.00 in0.0 mm
05:30 AM 24.4°F-4.2°C 22.7°F-5.2°C 93% Calm Calm -- 29.44 in997.0 mb - 0.00 in0.0 mm 0.00 in0.0 mm
05:45 AM 24.4°F-4.2°C 23.2°F-4.9°C 95% Calm Calm 1.2 mph1.9 kmh 29.44 in997.0 mb - 0.00 in0.0 mm 0.00 in0.0 mm
06:00 AM 24.4°F-4.2°C 23.2°F-4.9°C 95% 1.2 mph NW1.9 kmh NW 1.2 mph1.9 kmh 29.44 in997.0 mb - 0.00 in0.0 mm 0.00 in0.0 mm
06:15 AM 24.4°F-4.2°C 23.2°F-4.9°C 95% 1.2 mph N1.9 kmh N 3.5 mph5.6 kmh 29.44 in997.0 mb - 0.00 in0.0 mm 0.00 in0.0 mm
06:30 AM 24.4°F-4.2°C 23.2°F-4.9°C 95% 1.2 mph WSW1.9 kmh WSW 2.3 mph3.7 kmh 29.44 in997.0 mb - 0.00 in0.0 mm 0.00 in0.0 mm
06:45 AM 24.4°F-4.2°C 23.2°F-4.9°C 95% Calm Calm 2.3 mph3.7 kmh 29.45 in997.3 mb - 0.00 in0.0 mm 0.00 in0.0 mm
07:00 AM 24.4°F-4.2°C 23.4°F-4.8°C 96% 1.2 mph W1.9 kmh W 2.3 mph3.7 kmh 29.45 in997.3 mb - 0.00 in0.0 mm 0.00 in0.0 mm
07:15 AM 24.4°F-4.2°C 23.4°F-4.8°C 96% Calm Calm -- 29.45 in997.3 mb - 0.00 in0.0 mm 0.00 in0.0 mm
07:30 AM 24.3°F-4.3°C 23.3°F-4.8°C 96% 1.2 mph N1.9 kmh N 1.2 mph1.9 kmh 29.46 in997.6 mb - 0.00 in0.0 mm 0.00 in0.0 mm
07:45 AM 23.9°F-4.5°C 22.2°F-5.4°C 93% 4.6 mph WSW7.4 kmh WSW 5.8 mph9.3 kmh 29.46 in997.6 mb - 0.00 in0.0 mm 0.00 in0.0 mm
08:00 AM 23.9°F-4.5°C 22.2°F-5.4°C 93% Calm Calm -- 29.47 in998.0 mb - 0.00 in0.0 mm 0.00 in0.0 mm
08:15 AM 24.3°F-4.3°C 22.6°F-5.2°C 93% Calm Calm -- 29.47 in998.0 mb - 0.00 in0.0 mm 0.00 in0.0 mm
08:30 AM 24.6°F-4.1°C 22.6°F-5.2°C 92% 1.2 mph N1.9 kmh N 1.2 mph1.9 kmh 29.47 in998.0 mb - 0.00 in0.0 mm 0.00 in0.0 mm
08:45 AM 25.3°F-3.7°C 22.2°F-5.4°C 88% 2.3 mph W3.7 kmh W 2.3 mph3.7 kmh 29.47 in998.0 mb - 0.00 in0.0 mm 0.00 in0.0 mm
09:00 AM 26.8°F-2.9°C 22.3°F-5.4°C 83% 2.3 mph WNW3.7 kmh WNW 2.3 mph3.7 kmh 29.47 in998.0 mb - 0.00 in0.0 mm 0.00 in0.0 mm
09:15 AM 27.7°F-2.4°C 22.3°F-5.4°C 80% 1.2 mph WNW1.9 kmh WNW 4.6 mph7.4 kmh 29.47 in998.0 mb - 0.00 in0.0 mm 0.00 in0.0 mm
09:30 AM 28.6°F-1.9°C 22.9°F-5.1°C 79% 2.3 mph N3.7 kmh N 2.3 mph3.7 kmh 29.48 in998.3 mb - 0.00 in0.0 mm 0.00 in0.0 mm
09:45 AM 26.9°F-2.8°C 21.3°F-5.9°C 79% 3.5 mph E5.6 kmh E 5.8 mph9.3 kmh 29.48 in998.3 mb - 0.00 in0.0 mm 0.00 in0.0 mm
10:00 AM 26.3°F-3.2°C 19.7°F-6.8°C 76% 4.6 mph SE7.4 kmh SE 3.5 mph5.6 kmh 29.48 in998.3 mb - 0.00 in0.0 mm 0.00 in0.0 mm
10:15 AM 26.7°F-2.9°C 19.2°F-7.1°C 73% 3.5 mph SE5.6 kmh SE 4.6 mph7.4 kmh 29.49 in998.6 mb - 0.00 in0.0 mm 0.00 in0.0 mm
10:30 AM 28.6°F-1.9°C 19.4°F-7.0°C 68% 2.3 mph WSW3.7 kmh WSW 3.5 mph5.6 kmh 29.49 in998.6 mb - 0.00 in0.0 mm 0.00 in0.0 mm
10:45 AM 27.5°F-2.5°C 19.0°F-7.2°C 70% 2.3 mph ESE3.7 kmh ESE 2.3 mph3.7 kmh 29.49 in998.6 mb - 0.00 in0.0 mm 0.00 in0.0 mm
11:00 AM 27.8°F-2.3°C 18.9°F-7.3°C 69% 4.6 mph SW7.4 kmh SW 4.6 mph7.4 kmh 29.49 in998.6 mb - 0.00 in0.0 mm 0.00 in0.0 mm
11:15 AM 28.5°F-1.9°C 18.9°F-7.3°C 67% 3.5 mph NW5.6 kmh NW 3.5 mph5.6 kmh 29.50 in999.0 mb - 0.00 in0.0 mm 0.00 in0.0 mm
11:30 AM 30.7°F-0.7°C 20.3°F-6.5°C 65% 2.3 mph NNW3.7 kmh NNW 5.8 mph9.3 kmh 29.49 in998.6 mb - 0.00 in0.0 mm 0.00 in0.0 mm
11:45 AM 32.0°F0.0°C 20.4°F-6.4°C 62% 3.5 mph WSW5.6 kmh WSW 4.6 mph7.4 kmh 29.50 in999.0 mb - 0.00 in0.0 mm 0.00 in0.0 mm
12:00 PM 33.3°F0.7°C 21.3°F-5.9°C 61% 3.5 mph SW5.6 kmh SW 5.8 mph9.3 kmh 29.49 in998.6 mb - 0.00 in0.0 mm 0.00 in0.0 mm
12:15 PM 33.1°F0.6°C 21.1°F-6.1°C 61% 3.5 mph WSW5.6 kmh WSW 5.8 mph9.3 kmh 29.49 in998.6 mb - 0.00 in0.0 mm 0.00 in0.0 mm
12:45 PM 35.4°F1.9°C 22.9°F-5.1°C 60% 2.3 mph WSW3.7 kmh WSW 3.5 mph5.6 kmh 29.50 in999.0 mb - 0.00 in0.0 mm 0.00 in0.0 mm
01:00 PM 36.0°F2.2°C 22.7°F-5.2°C 58% 3.5 mph NW5.6 kmh NW 3.5 mph5.6 kmh 29.50 in999.0 mb - 0.00 in0.0 mm 0.00 in0.0 mm
01:15 PM 36.7°F2.6°C 23.7°F-4.6°C 59% 3.5 mph N5.6 kmh N 6.9 mph11.1 kmh 29.50 in999.0 mb - 0.00 in0.0 mm 0.00 in0.0 mm
01:30 PM 35.9°F2.2°C 22.1°F-5.5°C 57% 3.5 mph WNW5.6 kmh WNW 3.5 mph5.6 kmh 29.50 in999.0 mb - 0.00 in0.0 mm 0.00 in0.0 mm
01:45 PM 36.1°F2.3°C 22.3°F-5.4°C 57% 2.3 mph S3.7 kmh S 3.5 mph5.6 kmh 29.50 in999.0 mb - 0.00 in0.0 mm 0.00 in0.0 mm
02:00 PM 37.8°F3.2°C 24.0°F-4.4°C 57% 3.5 mph N5.6 kmh N 2.3 mph3.7 kmh 29.49 in998.6 mb - 0.00 in0.0 mm 0.00 in0.0 mm
02:15 PM 34.5°F1.4°C 21.7°F-5.7°C 59% 3.5 mph WSW5.6 kmh WSW 6.9 mph11.1 kmh 29.49 in998.6 mb - 0.00 in0.0 mm 0.00 in0.0 mm
02:30 PM 36.1°F2.3°C 22.8°F-5.1°C 58% 3.5 mph NW5.6 kmh NW 5.8 mph9.3 kmh 29.49 in998.6 mb - 0.00 in0.0 mm 0.00 in0.0 mm
02:45 PM 37.8°F3.2°C 22.6°F-5.2°C 54% 3.5 mph WNW5.6 kmh WNW 4.6 mph7.4 kmh 29.49 in998.6 mb - 0.00 in0.0 mm 0.00 in0.0 mm
03:00 PM 37.6°F3.1°C 22.4°F-5.3°C 54% 3.5 mph WNW5.6 kmh WNW 4.6 mph7.4 kmh 29.49 in998.6 mb - 0.00 in0.0 mm 0.00 in0.0 mm
03:15 PM 39.0°F3.9°C 23.3°F-4.8°C 53% 2.3 mph NNE3.7 kmh NNE 3.5 mph5.6 kmh 29.49 in998.6 mb - 0.00 in0.0 mm 0.00 in0.0 mm
03:30 PM 36.9°F2.7°C 22.7°F-5.2°C 56% 2.3 mph NW3.7 kmh NW 2.3 mph3.7 kmh 29.49 in998.6 mb - 0.00 in0.0 mm 0.00 in0.0 mm
03:45 PM 34.4°F1.3°C 21.5°F-5.8°C 59% 3.5 mph NW5.6 kmh NW 4.6 mph7.4 kmh 29.49 in998.6 mb - 0.00 in0.0 mm 0.00 in0.0 mm
04:00 PM 32.5°F0.3°C 21.3°F-5.9°C 63% 3.5 mph NNW5.6 kmh NNW 3.5 mph5.6 kmh 29.49 in998.6 mb - 0.00 in0.0 mm 0.00 in0.0 mm
04:15 PM 31.5°F-0.3°C 20.7°F-6.3°C 64% 2.3 mph NNE3.7 kmh NNE 3.5 mph5.6 kmh 29.49 in998.6 mb - 0.00 in0.0 mm 0.00 in0.0 mm
04:30 PM 30.5°F-0.8°C 20.1°F-6.6°C 65% 3.5 mph NW5.6 kmh NW 3.5 mph5.6 kmh 29.49 in998.6 mb - 0.00 in0.0 mm 0.00 in0.0 mm
04:45 PM 30.6°F-0.8°C 21.2°F-6.0°C 68% 1.2 mph S1.9 kmh S 2.3 mph3.7 kmh 29.49 in998.6 mb - 0.00 in0.0 mm 0.00 in0.0 mm
05:00 PM 29.7°F-1.3°C 20.8°F-6.2°C 69% 1.2 mph E1.9 kmh E 3.5 mph5.6 kmh 29.49 in998.6 mb - 0.00 in0.0 mm 0.00 in0.0 mm
05:15 PM 28.9°F-1.7°C 20.7°F-6.3°C 71% Calm Calm -- 29.49 in998.6 mb - 0.00 in0.0 mm 0.00 in0.0 mm
05:30 PM 28.4°F-2.0°C 19.9°F-6.7°C 70% Calm Calm -- 29.49 in998.6 mb - 0.00 in0.0 mm 0.00 in0.0 mm
06:00 PM 27.1°F-2.7°C 19.9°F-6.7°C 74% 1.2 mph N1.9 kmh N 2.3 mph3.7 kmh 29.49 in998.6 mb - 0.00 in0.0 mm 0.00 in0.0 mm
06:15 PM 27.0°F-2.8°C 20.1°F-6.6°C 75% 2.3 mph SE3.7 kmh SE 2.3 mph3.7 kmh 29.49 in998.6 mb - 0.00 in0.0 mm 0.00 in0.0 mm
06:30 PM 26.6°F-3.0°C 19.4°F-7.0°C 74% Calm Calm -- 29.49 in998.6 mb - 0.00 in0.0 mm 0.00 in0.0 mm
06:45 PM 25.7°F-3.5°C 19.2°F-7.1°C 76% Calm Calm -- 29.49 in998.6 mb - 0.00 in0.0 mm 0.00 in0.0 mm
07:00 PM 25.0°F-3.9°C 19.4°F-7.0°C 79% Calm Calm -- 29.49 in998.6 mb - 0.00 in0.0 mm 0.00 in0.0 mm
07:15 PM 24.4°F-4.2°C 18.8°F-7.3°C 79% Calm Calm -- 29.49 in998.6 mb - 0.00 in0.0 mm 0.00 in0.0 mm
07:30 PM 23.5°F-4.7°C 18.8°F-7.3°C 82% Calm Calm -- 29.49 in998.6 mb - 0.00 in0.0 mm 0.00 in0.0 mm
07:45 PM 23.2°F-4.9°C 18.2°F-7.7°C 81% Calm Calm -- 29.49 in998.6 mb - 0.00 in0.0 mm 0.00 in0.0 mm
08:00 PM 22.6°F-5.2°C 17.9°F-7.8°C 82% Calm Calm -- 29.49 in998.6 mb - 0.00 in0.0 mm 0.00 in0.0 mm
08:15 PM 22.1°F-5.5°C 17.4°F-8.1°C 82% Calm Calm -- 29.49 in998.6 mb - 0.00 in0.0 mm 0.00 in0.0 mm
08:30 PM 21.6°F-5.8°C 17.0°F-8.3°C 82% Calm Calm -- 29.49 in998.6 mb - 0.00 in0.0 mm 0.00 in0.0 mm
08:45 PM 21.2°F-6.0°C 16.8°F-8.4°C 83% Calm Calm -- 29.49 in998.6 mb - 0.00 in0.0 mm 0.00 in0.0 mm
09:00 PM 20.8°F-6.2°C 16.7°F-8.5°C 84% Calm Calm -- 29.49 in998.6 mb - 0.00 in0.0 mm 0.00 in0.0 mm
09:15 PM 20.8°F-6.2°C 16.7°F-8.5°C 84% Calm Calm -- 29.49 in998.6 mb - 0.00 in0.0 mm 0.00 in0.0 mm
09:30 PM 20.6°F-6.3°C 16.8°F-8.4°C 85% Calm Calm -- 29.48 in998.3 mb - 0.00 in0.0 mm 0.00 in0.0 mm
09:45 PM 20.1°F-6.6°C 16.6°F-8.6°C 86% Calm Calm -- 29.48 in998.3 mb - 0.00 in0.0 mm 0.00 in0.0 mm
10:00 PM 19.9°F-6.7°C 16.9°F-8.4°C 88% Calm Calm -- 29.48 in998.3 mb - 0.00 in0.0 mm 0.00 in0.0 mm
10:15 PM 19.6°F-6.9°C 17.1°F-8.3°C 90% 1.2 mph SW1.9 kmh SW 1.2 mph1.9 kmh 29.48 in998.3 mb - 0.00 in0.0 mm 0.00 in0.0 mm
10:30 PM 19.6°F-6.9°C 17.1°F-8.3°C 90% Calm Calm 1.2 mph1.9 kmh 29.47 in998.0 mb - 0.00 in0.0 mm 0.00 in0.0 mm
10:45 PM 19.6°F-6.9°C 17.1°F-8.3°C 90% Calm Calm -- 29.47 in998.0 mb - 0.00 in0.0 mm 0.00 in0.0 mm
11:00 PM 19.0°F-7.2°C 16.6°F-8.6°C 90% Calm Calm -- 29.47 in998.0 mb - 0.00 in0.0 mm 0.00 in0.0 mm
11:15 PM 18.5°F-7.5°C 16.1°F-8.8°C 90% Calm Calm -- 29.46 in997.6 mb - 0.00 in0.0 mm 0.00 in0.0 mm
11:30 PM 18.3°F-7.6°C 16.1°F-8.8°C 91% Calm Calm -- 29.46 in997.6 mb - 0.00 in0.0 mm 0.00 in0.0 mm
11:45 PM 18.0°F-7.8°C 16.1°F-8.8°C 92% Calm Calm -- 29.46 in997.6 mb - 0.00 in0.0 mm 0.00 in0.0 mm